sensor_id;sensor_type;location;lat;lon;timestamp;pressure;altitude;pressure_sealevel;temperature;humidity
11985;BME280;6052;53.246;10.368;2023-06-26T00:02:09;100935.50;;;27.25;69.32
11985;BME280;6052;53.246;10.368;2023-06-26T00:04:42;100928.72;;;27.22;69.41
11985;BME280;6052;53.246;10.368;2023-06-26T00:07:11;100930.59;;;26.98;69.99
11985;BME280;6052;53.246;10.368;2023-06-26T00:09:41;100924.44;;;27.13;69.51
11985;BME280;6052;53.246;10.368;2023-06-26T00:12:13;100927.44;;;26.87;70.56
11985;BME280;6052;53.246;10.368;2023-06-26T00:14:42;100921.94;;;26.87;70.85
11985;BME280;6052;53.246;10.368;2023-06-26T00:17:14;100924.31;;;26.77;71.04
11985;BME280;6052;53.246;10.368;2023-06-26T00:19:44;100918.22;;;26.71;71.11
11985;BME280;6052;53.246;10.368;2023-06-26T00:22:13;100909.75;;;26.76;71.05
11985;BME280;6052;53.246;10.368;2023-06-26T00:24:43;100909.00;;;26.67;71.06
11985;BME280;6052;53.246;10.368;2023-06-26T00:27:15;100906.56;;;26.86;70.78
11985;BME280;6052;53.246;10.368;2023-06-26T00:29:45;100905.19;;;26.92;69.87
11985;BME280;6052;53.246;10.368;2023-06-26T00:32:19;100912.78;;;26.95;70.07
11985;BME280;6052;53.246;10.368;2023-06-26T00:34:48;100905.63;;;26.94;69.30
11985;BME280;6052;53.246;10.368;2023-06-26T00:37:19;100905.06;;;26.89;70.02
11985;BME280;6052;53.246;10.368;2023-06-26T00:39:49;100908.91;;;26.76;70.15
11985;BME280;6052;53.246;10.368;2023-06-26T00:42:21;100907.59;;;26.41;71.84
11985;BME280;6052;53.246;10.368;2023-06-26T00:44:50;100911.41;;;26.48;71.85
11985;BME280;6052;53.246;10.368;2023-06-26T00:47:19;100909.19;;;26.42;71.68
11985;BME280;6052;53.246;10.368;2023-06-26T00:49:49;100912.25;;;26.49;71.40
11985;BME280;6052;53.246;10.368;2023-06-26T00:52:19;100908.41;;;26.62;70.56
11985;BME280;6052;53.246;10.368;2023-06-26T00:54:50;100893.97;;;26.44;71.33
11985;BME280;6052;53.246;10.368;2023-06-26T00:57:22;100898.00;;;26.67;70.25
11985;BME280;6052;53.246;10.368;2023-06-26T00:59:52;100889.81;;;26.59;70.42
11985;BME280;6052;53.246;10.368;2023-06-26T01:02:22;100884.91;;;26.44;71.34
11985;BME280;6052;53.246;10.368;2023-06-26T01:04:53;100873.00;;;26.31;72.02
11985;BME280;6052;53.246;10.368;2023-06-26T01:07:23;100878.13;;;26.41;70.97
11985;BME280;6052;53.246;10.368;2023-06-26T01:09:53;100880.06;;;26.41;71.06
11985;BME280;6052;53.246;10.368;2023-06-26T01:12:25;100872.69;;;25.92;72.94
11985;BME280;6052;53.246;10.368;2023-06-26T01:14:54;100880.28;;;25.86;73.82
11985;BME280;6052;53.246;10.368;2023-06-26T01:17:24;100879.19;;;26.08;72.40
11985;BME280;6052;53.246;10.368;2023-06-26T01:19:58;100874.75;;;26.15;72.09
11985;BME280;6052;53.246;10.368;2023-06-26T01:22:33;100865.44;;;26.08;72.28
11985;BME280;6052;53.246;10.368;2023-06-26T01:25:15;100865.63;;;26.23;71.63
11985;BME280;6052;53.246;10.368;2023-06-26T01:27:50;100866.19;;;25.88;72.80
11985;BME280;6052;53.246;10.368;2023-06-26T01:30:21;100867.41;;;26.07;72.42
11985;BME280;6052;53.246;10.368;2023-06-26T01:32:52;100861.94;;;25.99;72.49
11985;BME280;6052;53.246;10.368;2023-06-26T01:35:24;100859.06;;;25.95;72.41
11985;BME280;6052;53.246;10.368;2023-06-26T01:38:11;100856.31;;;25.95;73.33
11985;BME280;6052;53.246;10.368;2023-06-26T01:40:41;100850.53;;;26.09;72.20
11985;BME280;6052;53.246;10.368;2023-06-26T01:43:15;100843.91;;;26.10;71.71
11985;BME280;6052;53.246;10.368;2023-06-26T01:45:50;100854.75;;;26.27;70.98
11985;BME280;6052;53.246;10.368;2023-06-26T01:48:23;100849.78;;;26.20;70.86
11985;BME280;6052;53.246;10.368;2023-06-26T01:50:58;100847.53;;;26.22;71.02
11985;BME280;6052;53.246;10.368;2023-06-26T01:53:33;100845.34;;;26.28;70.32
11985;BME280;6052;53.246;10.368;2023-06-26T01:56:07;100849.38;;;26.30;69.92
11985;BME280;6052;53.246;10.368;2023-06-26T01:58:43;100839.72;;;26.24;69.91
11985;BME280;6052;53.246;10.368;2023-06-26T02:01:14;100833.38;;;26.24;70.36
11985;BME280;6052;53.246;10.368;2023-06-26T02:03:44;100831.47;;;26.24;70.71
11985;BME280;6052;53.246;10.368;2023-06-26T02:06:14;100832.41;;;26.08;71.28
11985;BME280;6052;53.246;10.368;2023-06-26T02:08:43;100830.75;;;25.86;72.01
11985;BME280;6052;53.246;10.368;2023-06-26T02:11:13;100826.97;;;25.99;71.25
11985;BME280;6052;53.246;10.368;2023-06-26T02:13:46;100826.06;;;25.66;72.99
11985;BME280;6052;53.246;10.368;2023-06-26T02:16:15;100819.81;;;25.78;72.45
11985;BME280;6052;53.246;10.368;2023-06-26T02:18:45;100813.25;;;25.70;73.18
11985;BME280;6052;53.246;10.368;2023-06-26T02:21:14;100814.06;;;25.71;72.16
11985;BME280;6052;53.246;10.368;2023-06-26T02:23:44;100815.84;;;25.87;71.55
11985;BME280;6052;53.246;10.368;2023-06-26T02:26:13;100815.88;;;25.67;72.70
11985;BME280;6052;53.246;10.368;2023-06-26T02:28:45;100812.53;;;25.82;72.16
11985;BME280;6052;53.246;10.368;2023-06-26T02:31:15;100809.84;;;25.94;70.83
11985;BME280;6052;53.246;10.368;2023-06-26T02:33:44;100811.50;;;25.86;71.36
11985;BME280;6052;53.246;10.368;2023-06-26T02:36:14;100815.63;;;26.01;71.07
11985;BME280;6052;53.246;10.368;2023-06-26T02:38:44;100814.91;;;25.92;71.41
11985;BME280;6052;53.246;10.368;2023-06-26T02:41:13;100814.22;;;25.95;70.65
11985;BME280;6052;53.246;10.368;2023-06-26T02:43:47;100814.06;;;25.91;71.13
11985;BME280;6052;53.246;10.368;2023-06-26T02:46:17;100805.75;;;25.79;71.97
11985;BME280;6052;53.246;10.368;2023-06-26T02:48:48;100800.28;;;25.50;73.21
11985;BME280;6052;53.246;10.368;2023-06-26T02:51:20;100794.13;;;25.24;74.69
11985;BME280;6052;53.246;10.368;2023-06-26T02:53:50;100788.69;;;25.07;75.45
11985;BME280;6052;53.246;10.368;2023-06-26T02:56:19;100793.47;;;25.27;73.90
11985;BME280;6052;53.246;10.368;2023-06-26T02:58:51;100792.84;;;25.22;74.51
11985;BME280;6052;53.246;10.368;2023-06-26T03:01:21;100796.66;;;25.38;73.99
11985;BME280;6052;53.246;10.368;2023-06-26T03:03:51;100791.19;;;25.21;74.50
11985;BME280;6052;53.246;10.368;2023-06-26T03:06:21;100793.94;;;25.21;74.05
11985;BME280;6052;53.246;10.368;2023-06-26T03:08:50;100790.38;;;25.29;74.08
11985;BME280;6052;53.246;10.368;2023-06-26T03:11:19;100789.72;;;25.23;74.18
11985;BME280;6052;53.246;10.368;2023-06-26T03:13:51;100788.66;;;25.45;73.50
11985;BME280;6052;53.246;10.368;2023-06-26T03:16:21;100791.19;;;25.21;74.33
11985;BME280;6052;53.246;10.368;2023-06-26T03:18:50;100786.94;;;25.40;73.14
11985;BME280;6052;53.246;10.368;2023-06-26T03:21:20;100788.97;;;25.14;74.46
11985;BME280;6052;53.246;10.368;2023-06-26T03:23:49;100785.34;;;25.31;73.65
11985;BME280;6052;53.246;10.368;2023-06-26T03:26:18;100779.63;;;25.07;74.81
11985;BME280;6052;53.246;10.368;2023-06-26T03:28:57;100773.34;;;25.06;75.00
11985;BME280;6052;53.246;10.368;2023-06-26T03:31:27;100775.97;;;24.94;75.48
11985;BME280;6052;53.246;10.368;2023-06-26T03:33:56;100772.56;;;24.97;74.93
11985;BME280;6052;53.246;10.368;2023-06-26T03:36:27;100770.34;;;24.91;76.11
11985;BME280;6052;53.246;10.368;2023-06-26T03:38:57;100769.19;;;25.00;75.09
11985;BME280;6052;53.246;10.368;2023-06-26T03:41:27;100769.88;;;24.89;76.33
11985;BME280;6052;53.246;10.368;2023-06-26T03:43:59;100772.53;;;24.68;76.86
11985;BME280;6052;53.246;10.368;2023-06-26T03:46:29;100764.28;;;24.68;76.85
11985;BME280;6052;53.246;10.368;2023-06-26T03:48:59;100771.03;;;24.79;76.78
11985;BME280;6052;53.246;10.368;2023-06-26T03:51:31;100763.34;;;24.56;77.98
11985;BME280;6052;53.246;10.368;2023-06-26T03:54:03;100765.00;;;24.31;78.13
11985;BME280;6052;53.246;10.368;2023-06-26T03:56:33;100762.00;;;24.70;76.71
11985;BME280;6052;53.246;10.368;2023-06-26T03:59:05;100761.13;;;24.87;76.01
11985;BME280;6052;53.246;10.368;2023-06-26T04:01:35;100762.88;;;24.62;77.30
11985;BME280;6052;53.246;10.368;2023-06-26T04:04:05;100769.56;;;24.82;76.53
11985;BME280;6052;53.246;10.368;2023-06-26T04:06:34;100751.41;;;24.52;78.14
11985;BME280;6052;53.246;10.368;2023-06-26T04:09:04;100759.13;;;24.67;76.83
11985;BME280;6052;53.246;10.368;2023-06-26T04:11:33;100749.66;;;24.47;78.34
11985;BME280;6052;53.246;10.368;2023-06-26T04:14:05;100748.22;;;24.33;79.27
11985;BME280;6052;53.246;10.368;2023-06-26T04:16:35;100755.41;;;24.71;78.11
11985;BME280;6052;53.246;10.368;2023-06-26T04:19:04;100743.00;;;24.48;78.96
11985;BME280;6052;53.246;10.368;2023-06-26T04:21:34;100748.19;;;24.50;78.83
11985;BME280;6052;53.246;10.368;2023-06-26T04:24:04;100745.28;;;24.46;79.53
11985;BME280;6052;53.246;10.368;2023-06-26T04:26:34;100741.72;;;24.46;80.39
11985;BME280;6052;53.246;10.368;2023-06-26T04:29:06;100740.41;;;24.52;79.23
11985;BME280;6052;53.246;10.368;2023-06-26T04:31:35;100738.66;;;24.39;80.38
11985;BME280;6052;53.246;10.368;2023-06-26T04:34:05;100735.81;;;24.27;80.51
11985;BME280;6052;53.246;10.368;2023-06-26T04:36:34;100735.59;;;24.40;80.58
11985;BME280;6052;53.246;10.368;2023-06-26T04:39:05;100733.06;;;24.27;81.08
11985;BME280;6052;53.246;10.368;2023-06-26T04:41:36;100729.84;;;24.16;81.51
11985;BME280;6052;53.246;10.368;2023-06-26T04:44:08;100725.94;;;24.34;81.22
11985;BME280;6052;53.246;10.368;2023-06-26T04:46:38;100726.16;;;24.12;82.58
11985;BME280;6052;53.246;10.368;2023-06-26T04:49:08;100718.31;;;24.48;80.37
11985;BME280;6052;53.246;10.368;2023-06-26T04:51:37;100716.78;;;24.22;81.52
11985;BME280;6052;53.246;10.368;2023-06-26T04:54:08;100717.13;;;24.12;82.65
11985;BME280;6052;53.246;10.368;2023-06-26T04:56:37;100711.44;;;24.25;81.32
11985;BME280;6052;53.246;10.368;2023-06-26T04:59:10;100713.09;;;24.09;81.62
11985;BME280;6052;53.246;10.368;2023-06-26T05:01:40;100710.75;;;24.37;82.14
11985;BME280;6052;53.246;10.368;2023-06-26T05:04:15;100704.47;;;24.28;82.29
11985;BME280;6052;53.246;10.368;2023-06-26T05:06:45;100706.38;;;24.44;81.27
11985;BME280;6052;53.246;10.368;2023-06-26T05:09:14;100704.75;;;24.43;81.28
11985;BME280;6052;53.246;10.368;2023-06-26T05:11:44;100703.16;;;24.34;82.73
11985;BME280;6052;53.246;10.368;2023-06-26T05:14:16;100695.50;;;24.56;81.70
11985;BME280;6052;53.246;10.368;2023-06-26T05:16:45;100686.50;;;24.47;82.12
11985;BME280;6052;53.246;10.368;2023-06-26T05:19:14;100685.88;;;24.42;81.59
11985;BME280;6052;53.246;10.368;2023-06-26T05:21:44;100690.91;;;24.31;83.27
11985;BME280;6052;53.246;10.368;2023-06-26T05:24:15;100686.63;;;24.13;83.76
11985;BME280;6052;53.246;10.368;2023-06-26T05:26:48;100681.75;;;24.27;83.53
11985;BME280;6052;53.246;10.368;2023-06-26T05:29:20;100673.31;;;24.32;83.37
11985;BME280;6052;53.246;10.368;2023-06-26T05:31:51;100680.00;;;24.60;82.68
11985;BME280;6052;53.246;10.368;2023-06-26T05:34:22;100672.66;;;24.35;84.72
11985;BME280;6052;53.246;10.368;2023-06-26T05:36:58;100669.91;;;24.44;82.81
11985;BME280;6052;53.246;10.368;2023-06-26T05:39:28;100672.91;;;24.51;83.68
11985;BME280;6052;53.246;10.368;2023-06-26T05:41:58;100664.88;;;24.46;83.59
11985;BME280;6052;53.246;10.368;2023-06-26T05:44:30;100653.69;;;24.59;82.51
11985;BME280;6052;53.246;10.368;2023-06-26T05:46:59;100649.41;;;24.70;83.40
11985;BME280;6052;53.246;10.368;2023-06-26T05:49:29;100651.06;;;24.71;82.69
11985;BME280;6052;53.246;10.368;2023-06-26T05:51:59;100655.91;;;24.66;83.62
11985;BME280;6052;53.246;10.368;2023-06-26T05:54:29;100654.63;;;24.63;83.38
11985;BME280;6052;53.246;10.368;2023-06-26T05:56:59;100648.84;;;24.56;83.22
11985;BME280;6052;53.246;10.368;2023-06-26T05:59:36;100646.59;;;24.50;83.12
11985;BME280;6052;53.246;10.368;2023-06-26T06:02:06;100642.66;;;24.68;83.32
11985;BME280;6052;53.246;10.368;2023-06-26T06:04:35;100637.88;;;24.85;82.87
11985;BME280;6052;53.246;10.368;2023-06-26T06:07:05;100644.09;;;24.94;84.29
11985;BME280;6052;53.246;10.368;2023-06-26T06:09:34;100646.63;;;25.08;83.36
11985;BME280;6052;53.246;10.368;2023-06-26T06:12:05;100643.50;;;25.09;81.65
11985;BME280;6052;53.246;10.368;2023-06-26T06:14:37;100644.59;;;24.96;82.45
11985;BME280;6052;53.246;10.368;2023-06-26T06:17:07;100634.75;;;25.16;82.43
11985;BME280;6052;53.246;10.368;2023-06-26T06:19:36;100638.56;;;25.23;82.98
11985;BME280;6052;53.246;10.368;2023-06-26T06:22:05;100633.88;;;25.24;82.92
11985;BME280;6052;53.246;10.368;2023-06-26T06:24:35;100634.16;;;25.31;81.37
11985;BME280;6052;53.246;10.368;2023-06-26T06:27:05;100633.91;;;25.44;81.00
11985;BME280;6052;53.246;10.368;2023-06-26T06:29:37;100632.75;;;25.45;80.70
11985;BME280;6052;53.246;10.368;2023-06-26T06:32:07;100633.22;;;25.47;80.86
11985;BME280;6052;53.246;10.368;2023-06-26T06:34:36;100628.97;;;25.50;80.30
11985;BME280;6052;53.246;10.368;2023-06-26T06:37:06;100622.91;;;25.44;80.49
11985;BME280;6052;53.246;10.368;2023-06-26T06:39:35;100632.72;;;25.66;79.68
11985;BME280;6052;53.246;10.368;2023-06-26T06:42:05;100630.88;;;25.70;79.41
11985;BME280;6052;53.246;10.368;2023-06-26T06:44:37;100621.00;;;25.57;78.90
11985;BME280;6052;53.246;10.368;2023-06-26T06:47:07;100617.78;;;25.55;78.09
11985;BME280;6052;53.246;10.368;2023-06-26T06:49:36;100617.00;;;25.54;79.03
11985;BME280;6052;53.246;10.368;2023-06-26T06:52:05;100611.41;;;25.75;79.61
11985;BME280;6052;53.246;10.368;2023-06-26T06:54:53;100613.06;;;25.88;77.58
11985;BME280;6052;53.246;10.368;2023-06-26T06:57:25;100604.91;;;25.79;78.44
11985;BME280;6052;53.246;10.368;2023-06-26T06:59:57;100594.59;;;25.76;77.72
11985;BME280;6052;53.246;10.368;2023-06-26T07:02:29;100591.06;;;25.88;77.71
11985;BME280;6052;53.246;10.368;2023-06-26T07:04:59;100578.78;;;25.85;77.84
11985;BME280;6052;53.246;10.368;2023-06-26T07:07:29;100583.91;;;26.07;77.68
11985;BME280;6052;53.246;10.368;2023-06-26T07:10:03;100592.16;;;26.07;79.55
11985;BME280;6052;53.246;10.368;2023-06-26T07:12:33;100592.16;;;26.19;77.71
11985;BME280;6052;53.246;10.368;2023-06-26T07:15:06;100586.88;;;26.14;76.16
11985;BME280;6052;53.246;10.368;2023-06-26T07:17:36;100582.06;;;26.35;77.08
11985;BME280;6052;53.246;10.368;2023-06-26T07:20:07;100580.03;;;26.32;76.94
11985;BME280;6052;53.246;10.368;2023-06-26T07:22:42;100584.59;;;26.40;75.47
11985;BME280;6052;53.246;10.368;2023-06-26T07:25:12;100580.59;;;26.62;76.25
11985;BME280;6052;53.246;10.368;2023-06-26T07:27:42;100586.81;;;26.59;75.91
11985;BME280;6052;53.246;10.368;2023-06-26T07:30:14;100574.59;;;26.72;74.71
11985;BME280;6052;53.246;10.368;2023-06-26T07:32:44;100581.13;;;26.79;75.26
11985;BME280;6052;53.246;10.368;2023-06-26T07:35:15;100578.97;;;26.85;75.49
11985;BME280;6052;53.246;10.368;2023-06-26T07:37:45;100569.28;;;27.03;76.13
11985;BME280;6052;53.246;10.368;2023-06-26T07:40:14;100574.84;;;27.18;76.06
11985;BME280;6052;53.246;10.368;2023-06-26T07:42:44;100569.34;;;27.18;75.84
11985;BME280;6052;53.246;10.368;2023-06-26T07:45:16;100565.31;;;27.28;76.10
11985;BME280;6052;53.246;10.368;2023-06-26T07:47:46;100567.72;;;27.29;74.42
11985;BME280;6052;53.246;10.368;2023-06-26T07:50:16;100574.47;;;27.59;76.07
11985;BME280;6052;53.246;10.368;2023-06-26T07:52:48;100570.84;;;27.71;75.66
11985;BME280;6052;53.246;10.368;2023-06-26T07:55:19;100568.16;;;27.74;75.18
11985;BME280;6052;53.246;10.368;2023-06-26T07:57:49;100571.78;;;28.06;76.10
11985;BME280;6052;53.246;10.368;2023-06-26T08:00:21;100575.41;;;28.25;76.18
11985;BME280;6052;53.246;10.368;2023-06-26T08:02:50;100566.59;;;28.04;74.13
11985;BME280;6052;53.246;10.368;2023-06-26T08:05:20;100566.44;;;27.97;73.33
11985;BME280;6052;53.246;10.368;2023-06-26T08:07:50;100570.50;;;28.19;74.52
11985;BME280;6052;53.246;10.368;2023-06-26T08:10:19;100569.09;;;28.40;74.61
11985;BME280;6052;53.246;10.368;2023-06-26T08:12:49;100560.53;;;28.45;73.08
11985;BME280;6052;53.246;10.368;2023-06-26T08:15:21;100558.09;;;28.59;70.79
11985;BME280;6052;53.246;10.368;2023-06-26T08:17:51;100558.94;;;28.79;69.67
11985;BME280;6052;53.246;10.368;2023-06-26T08:20:20;100556.38;;;28.70;70.51
11985;BME280;6052;53.246;10.368;2023-06-26T08:22:50;100553.06;;;28.80;70.51
11985;BME280;6052;53.246;10.368;2023-06-26T08:25:21;100545.44;;;28.93;71.18
11985;BME280;6052;53.246;10.368;2023-06-26T08:27:50;100542.31;;;29.13;71.59
11985;BME280;6052;53.246;10.368;2023-06-26T08:30:23;100530.97;;;28.99;69.51
11985;BME280;6052;53.246;10.368;2023-06-26T08:32:54;100523.47;;;29.00;69.32
11985;BME280;6052;53.246;10.368;2023-06-26T08:35:24;100512.34;;;29.15;69.08
11985;BME280;6052;53.246;10.368;2023-06-26T08:37:53;100528.25;;;29.41;68.75
11985;BME280;6052;53.246;10.368;2023-06-26T08:40:24;100524.25;;;29.38;67.60
11985;BME280;6052;53.246;10.368;2023-06-26T08:42:53;100536.31;;;29.68;66.14
11985;BME280;6052;53.246;10.368;2023-06-26T08:45:25;100524.38;;;29.45;65.36
11985;BME280;6052;53.246;10.368;2023-06-26T08:47:58;100518.28;;;29.55;66.32
11985;BME280;6052;53.246;10.368;2023-06-26T08:50:34;100525.41;;;29.56;66.76
11985;BME280;6052;53.246;10.368;2023-06-26T08:53:08;100527.81;;;29.39;65.14
11985;BME280;6052;53.246;10.368;2023-06-26T08:55:41;100523.56;;;29.45;65.75
11985;BME280;6052;53.246;10.368;2023-06-26T08:58:10;100528.88;;;29.53;66.53
11985;BME280;6052;53.246;10.368;2023-06-26T09:00:43;100526.59;;;29.55;65.72
11985;BME280;6052;53.246;10.368;2023-06-26T09:03:12;100524.22;;;29.57;64.24
11985;BME280;6052;53.246;10.368;2023-06-26T09:05:42;100529.97;;;29.68;64.62
11985;BME280;6052;53.246;10.368;2023-06-26T09:08:12;100528.53;;;29.55;64.10
11985;BME280;6052;53.246;10.368;2023-06-26T09:10:42;100539.63;;;29.77;66.24
11985;BME280;6052;53.246;10.368;2023-06-26T09:13:12;100537.72;;;29.81;65.46
11985;BME280;6052;53.246;10.368;2023-06-26T09:15:57;100539.47;;;29.48;64.06
11985;BME280;6052;53.246;10.368;2023-06-26T09:18:26;100539.47;;;29.48;64.17
11985;BME280;6052;53.246;10.368;2023-06-26T09:20:56;100542.88;;;29.60;64.79
11985;BME280;6052;53.246;10.368;2023-06-26T09:23:26;100541.56;;;29.54;65.87
11985;BME280;6052;53.246;10.368;2023-06-26T09:25:56;100542.84;;;29.79;65.78
11985;BME280;6052;53.246;10.368;2023-06-26T09:28:25;100545.84;;;29.71;64.09
11985;BME280;6052;53.246;10.368;2023-06-26T09:31:00;100538.16;;;29.61;62.51
11985;BME280;6052;53.246;10.368;2023-06-26T09:33:35;100553.84;;;29.76;62.91
11985;BME280;6052;53.246;10.368;2023-06-26T09:36:06;100558.16;;;29.54;62.60
11985;BME280;6052;53.246;10.368;2023-06-26T09:38:36;100554.06;;;29.48;62.26
11985;BME280;6052;53.246;10.368;2023-06-26T09:41:05;100555.69;;;29.49;62.26
11985;BME280;6052;53.246;10.368;2023-06-26T09:43:45;100547.31;;;29.65;63.13
11985;BME280;6052;53.246;10.368;2023-06-26T09:46:24;100550.31;;;29.56;62.94
11985;BME280;6052;53.246;10.368;2023-06-26T09:49:01;100560.78;;;29.66;63.38
11985;BME280;6052;53.246;10.368;2023-06-26T09:51:32;100557.59;;;29.64;63.54
11985;BME280;6052;53.246;10.368;2023-06-26T09:54:03;100554.69;;;29.57;63.30
11985;BME280;6052;53.246;10.368;2023-06-26T09:56:33;100559.09;;;29.81;63.89
11985;BME280;6052;53.246;10.368;2023-06-26T09:59:05;100564.84;;;29.72;64.38
11985;BME280;6052;53.246;10.368;2023-06-26T10:01:39;100574.47;;;29.78;64.72
11985;BME280;6052;53.246;10.368;2023-06-26T10:04:09;100565.84;;;29.83;64.73
11985;BME280;6052;53.246;10.368;2023-06-26T10:06:43;100572.84;;;29.77;64.56
11985;BME280;6052;53.246;10.368;2023-06-26T10:09:17;100561.72;;;29.74;64.72
11985;BME280;6052;53.246;10.368;2023-06-26T10:11:49;100577.44;;;29.51;64.60
11985;BME280;6052;53.246;10.368;2023-06-26T10:14:21;100579.44;;;29.31;64.90
11985;BME280;6052;53.246;10.368;2023-06-26T10:16:55;100577.56;;;29.35;64.38
11985;BME280;6052;53.246;10.368;2023-06-26T10:19:27;100591.31;;;29.32;64.02
11985;BME280;6052;53.246;10.368;2023-06-26T10:21:58;100585.91;;;29.39;64.51
11985;BME280;6052;53.246;10.368;2023-06-26T10:24:31;100591.81;;;29.37;64.78
11985;BME280;6052;53.246;10.368;2023-06-26T10:27:06;100579.56;;;29.38;64.26
11985;BME280;6052;53.246;10.368;2023-06-26T10:29:38;100592.28;;;29.39;64.84
11985;BME280;6052;53.246;10.368;2023-06-26T10:32:11;100589.56;;;29.24;65.05
11985;BME280;6052;53.246;10.368;2023-06-26T10:34:42;100610.09;;;29.04;65.76
11985;BME280;6052;53.246;10.368;2023-06-26T10:37:12;100620.84;;;29.09;65.92
11985;BME280;6052;53.246;10.368;2023-06-26T10:39:48;100606.78;;;28.64;66.22
11985;BME280;6052;53.246;10.368;2023-06-26T10:42:19;100642.03;;;28.24;67.32
11985;BME280;6052;53.246;10.368;2023-06-26T10:44:49;100622.38;;;28.10;68.99
11985;BME280;6052;53.246;10.368;2023-06-26T10:47:33;100669.53;;;27.89;72.51
11985;BME280;6052;53.246;10.368;2023-06-26T10:50:20;100683.75;;;27.12;74.63
11985;BME280;6052;53.246;10.368;2023-06-26T10:53:08;100693.31;;;27.03;76.52
11985;BME280;6052;53.246;10.368;2023-06-26T10:55:41;100691.16;;;26.28;79.15
11985;BME280;6052;53.246;10.368;2023-06-26T10:58:30;100699.78;;;26.38;82.79
11985;BME280;6052;53.246;10.368;2023-06-26T11:01:21;100716.88;;;25.79;85.68
11985;BME280;6052;53.246;10.368;2023-06-26T11:04:05;100727.22;;;25.82;86.09
11985;BME280;6052;53.246;10.368;2023-06-26T11:06:36;100743.53;;;25.66;86.32
11985;BME280;6052;53.246;10.368;2023-06-26T11:09:08;100753.34;;;25.55;86.77
11985;BME280;6052;53.246;10.368;2023-06-26T11:11:55;100753.56;;;25.71;86.40
11985;BME280;6052;53.246;10.368;2023-06-26T11:14:31;100750.84;;;25.83;85.35
11985;BME280;6052;53.246;10.368;2023-06-26T11:17:05;100761.38;;;25.60;86.24
11985;BME280;6052;53.246;10.368;2023-06-26T11:19:42;100756.19;;;25.38;87.01
11985;BME280;6052;53.246;10.368;2023-06-26T11:22:13;100751.47;;;25.88;85.78
11985;BME280;6052;53.246;10.368;2023-06-26T11:24:44;100766.50;;;25.70;85.66
11985;BME280;6052;53.246;10.368;2023-06-26T11:27:13;100767.88;;;25.56;86.92
11985;BME280;6052;53.246;10.368;2023-06-26T11:29:47;100774.59;;;25.87;86.91
11985;BME280;6052;53.246;10.368;2023-06-26T11:32:17;100782.66;;;25.92;87.64
11985;BME280;6052;53.246;10.368;2023-06-26T11:34:49;100787.63;;;25.78;88.78
11985;BME280;6052;53.246;10.368;2023-06-26T11:37:19;100791.88;;;25.96;89.99
11985;BME280;6052;53.246;10.368;2023-06-26T11:39:48;100795.59;;;25.71;91.66
11985;BME280;6052;53.246;10.368;2023-06-26T11:42:18;100792.47;;;25.61;92.62
11985;BME280;6052;53.246;10.368;2023-06-26T11:44:47;100787.28;;;25.80;91.56
11985;BME280;6052;53.246;10.368;2023-06-26T11:47:18;100791.09;;;25.87;91.72
11985;BME280;6052;53.246;10.368;2023-06-26T11:49:51;100801.16;;;25.63;92.12
11985;BME280;6052;53.246;10.368;2023-06-26T11:52:21;100799.84;;;25.89;90.09
11985;BME280;6052;53.246;10.368;2023-06-26T11:54:50;100792.81;;;25.51;91.01
11985;BME280;6052;53.246;10.368;2023-06-26T11:57:20;100802.91;;;25.88;90.17
11985;BME280;6052;53.246;10.368;2023-06-26T11:59:50;100806.56;;;26.00;88.91
11985;BME280;6052;53.246;10.368;2023-06-26T12:02:21;100801.31;;;25.87;89.70
11985;BME280;6052;53.246;10.368;2023-06-26T12:04:53;100805.19;;;25.65;92.53
11985;BME280;6052;53.246;10.368;2023-06-26T12:07:22;100809.16;;;25.76;90.98
11985;BME280;6052;53.246;10.368;2023-06-26T12:09:52;100808.38;;;25.96;89.83
11985;BME280;6052;53.246;10.368;2023-06-26T12:12:24;100807.22;;;25.97;91.18
11985;BME280;6052;53.246;10.368;2023-06-26T12:14:54;100803.00;;;26.00;90.22
11985;BME280;6052;53.246;10.368;2023-06-26T12:17:24;100811.44;;;25.74;88.00
11985;BME280;6052;53.246;10.368;2023-06-26T12:19:57;100806.00;;;25.86;87.05
11985;BME280;6052;53.246;10.368;2023-06-26T12:22:34;100806.53;;;25.59;86.20
11985;BME280;6052;53.246;10.368;2023-06-26T12:25:07;100800.03;;;25.84;86.93
11985;BME280;6052;53.246;10.368;2023-06-26T12:27:36;100791.75;;;25.93;86.36
11985;BME280;6052;53.246;10.368;2023-06-26T12:30:06;100801.66;;;25.85;86.15
11985;BME280;6052;53.246;10.368;2023-06-26T12:32:36;100810.66;;;25.94;84.60
11985;BME280;6052;53.246;10.368;2023-06-26T12:35:09;100810.06;;;26.09;86.32
11985;BME280;6052;53.246;10.368;2023-06-26T12:37:38;100806.53;;;26.41;84.28
11985;BME280;6052;53.246;10.368;2023-06-26T12:40:17;100806.75;;;26.48;83.20
11985;BME280;6052;53.246;10.368;2023-06-26T12:42:49;100805.69;;;26.08;80.28
11985;BME280;6052;53.246;10.368;2023-06-26T12:45:18;100799.59;;;26.03;80.91
11985;BME280;6052;53.246;10.368;2023-06-26T12:48:07;100818.81;;;25.82;78.62
11985;BME280;6052;53.246;10.368;2023-06-26T12:50:43;100835.47;;;25.36;76.35
11985;BME280;6052;53.246;10.368;2023-06-26T12:53:12;100829.56;;;25.75;76.41
11985;BME280;6052;53.246;10.368;2023-06-26T12:55:42;100836.34;;;25.78;75.47
11985;BME280;6052;53.246;10.368;2023-06-26T12:58:11;100843.53;;;26.11;75.16
11985;BME280;6052;53.246;10.368;2023-06-26T13:00:41;100837.59;;;26.09;75.00
11985;BME280;6052;53.246;10.368;2023-06-26T13:03:10;100843.75;;;26.06;75.69
11985;BME280;6052;53.246;10.368;2023-06-26T13:05:42;100841.72;;;25.74;74.21
11985;BME280;6052;53.246;10.368;2023-06-26T13:08:12;100837.41;;;25.85;73.74
11985;BME280;6052;53.246;10.368;2023-06-26T13:10:43;100849.63;;;25.76;73.59
11985;BME280;6052;53.246;10.368;2023-06-26T13:13:13;100851.94;;;25.94;72.97